createdAt,value
2023-05-22T00:01:06.802Z,6.37
2023-05-22T00:03:36.491Z,6.27
2023-05-22T00:06:10.157Z,7.63
2023-05-22T00:08:38.205Z,5.50
2023-05-22T00:11:06.420Z,6.87
2023-05-22T00:13:34.506Z,7.93
2023-05-22T00:16:04.326Z,8.30
2023-05-22T00:18:32.799Z,7.13
2023-05-22T00:21:00.882Z,6.17
2023-05-22T00:23:30.055Z,5.53
2023-05-22T00:25:58.287Z,6.27
2023-05-22T00:28:26.475Z,4.67
2023-05-22T00:30:54.710Z,5.13
2023-05-22T00:33:24.164Z,6.53
2023-05-22T00:35:52.203Z,7.67
2023-05-22T00:38:32.297Z,6.00
2023-05-22T00:41:00.749Z,6.10
2023-05-22T00:43:29.198Z,8.13
2023-05-22T00:45:57.446Z,6.47
2023-05-22T00:48:27.068Z,6.10
2023-05-22T00:50:58.053Z,5.27
2023-05-22T00:53:28.164Z,5.43
2023-05-22T00:55:56.679Z,5.90
2023-05-22T00:58:27.926Z,7.90
2023-05-22T01:00:56.390Z,6.97
2023-05-22T01:03:25.953Z,6.93
2023-05-22T01:05:56.748Z,5.03
2023-05-22T01:08:25.135Z,10.90
2023-05-22T01:10:58.101Z,7.63
2023-05-22T01:13:31.328Z,5.23
2023-05-22T01:16:07.373Z,6.53
2023-05-22T01:18:42.265Z,5.80
2023-05-22T01:21:18.387Z,7.17
2023-05-22T01:24:14.028Z,7.93
2023-05-22T01:27:17.702Z,7.53
2023-05-22T01:29:52.086Z,5.83
2023-05-22T01:32:24.352Z,6.60
2023-05-22T01:34:56.247Z,7.17
2023-05-22T01:37:25.577Z,6.13
2023-05-22T01:39:54.669Z,6.90
2023-05-22T01:42:23.051Z,6.63
2023-05-22T01:44:51.273Z,6.73
2023-05-22T01:47:21.094Z,9.03
2023-05-22T01:49:49.210Z,6.73
2023-05-22T01:52:26.710Z,6.17
2023-05-22T01:55:03.676Z,6.90
2023-05-22T01:57:37.550Z,8.43
2023-05-22T02:00:10.899Z,6.33
2023-05-22T02:02:43.248Z,7.93
2023-05-22T02:05:13.560Z,7.30
2023-05-22T02:07:43.709Z,6.50
2023-05-22T02:10:14.436Z,7.77
2023-05-22T02:12:42.872Z,7.23
2023-05-22T02:15:11.493Z,10.47
2023-05-22T02:17:41.501Z,5.97
2023-05-22T02:20:14.612Z,7.17
2023-05-22T02:22:44.143Z,5.77
2023-05-22T02:25:15.040Z,6.43
2023-05-22T02:27:43.925Z,6.63
2023-05-22T02:30:12.884Z,6.23
2023-05-22T02:32:42.668Z,6.07
2023-05-22T02:35:11.613Z,5.97
2023-05-22T02:37:40.205Z,6.73
2023-05-22T02:40:10.095Z,6.47
2023-05-22T02:42:38.206Z,8.10
2023-05-22T02:45:07.403Z,7.77
2023-05-22T02:47:35.753Z,6.23
2023-05-22T02:50:05.587Z,6.03
2023-05-22T02:52:33.909Z,8.10
2023-05-22T02:55:02.144Z,6.50
2023-05-22T02:57:30.130Z,9.70
2023-05-22T02:59:59.260Z,6.27
2023-05-22T03:02:28.404Z,7.97
2023-05-22T03:04:59.073Z,8.07
2023-05-22T03:07:29.708Z,8.63
2023-05-22T03:09:57.922Z,9.33
2023-05-22T03:12:26.795Z,7.43
2023-05-22T03:14:54.844Z,6.63
2023-05-22T03:17:22.886Z,7.23
2023-05-22T03:19:51.179Z,10.83
2023-05-22T03:22:19.608Z,8.13
2023-05-22T03:24:49.053Z,7.17
2023-05-22T03:27:17.764Z,8.27
2023-05-22T03:29:46.029Z,8.13
2023-05-22T03:32:14.109Z,7.67
2023-05-22T03:34:43.437Z,7.23
2023-05-22T03:37:11.731Z,9.13
2023-05-22T03:39:40.679Z,8.70
2023-05-22T03:42:10.120Z,6.50
2023-05-22T03:44:38.391Z,9.70
2023-05-22T03:47:08.093Z,6.90
2023-05-22T03:49:36.243Z,10.47
2023-05-22T03:52:04.642Z,7.77
2023-05-22T03:54:32.747Z,8.10
2023-05-22T03:57:00.787Z,8.30
2023-05-22T03:59:30.275Z,9.50
2023-05-22T04:02:01.255Z,8.30
2023-05-22T04:04:29.654Z,8.23
2023-05-22T04:06:58.430Z,7.43
2023-05-22T04:09:28.497Z,9.97
2023-05-22T04:11:56.668Z,8.20
2023-05-22T04:14:24.665Z,10.50
2023-05-22T04:16:54.074Z,7.80
2023-05-22T04:19:22.761Z,8.17
2023-05-22T04:21:51.172Z,7.30
2023-05-22T04:24:19.811Z,9.67
2023-05-22T04:26:48.018Z,7.97
2023-05-22T04:29:16.600Z,11.00
2023-05-22T04:31:45.101Z,8.00
2023-05-22T04:34:18.605Z,9.60
2023-05-22T04:36:48.139Z,7.27
2023-05-22T04:39:16.553Z,11.93
2023-05-22T04:41:44.588Z,7.03
2023-05-22T04:44:12.639Z,9.87
2023-05-22T04:46:40.829Z,7.67
2023-05-22T04:49:08.899Z,9.80
2023-05-22T04:51:38.304Z,7.97
2023-05-22T04:54:06.392Z,7.60
2023-05-22T04:56:36.733Z,8.40
2023-05-22T04:59:09.353Z,7.63
2023-05-22T05:01:38.251Z,8.13
2023-05-22T05:04:06.669Z,9.27
2023-05-22T05:06:35.912Z,12.30
2023-05-22T05:09:05.467Z,7.43
2023-05-22T05:11:33.561Z,8.27
2023-05-22T05:14:01.644Z,10.10
2023-05-22T05:16:29.833Z,8.83
2023-05-22T05:18:57.975Z,7.90
2023-05-22T05:21:28.011Z,7.00
2023-05-22T05:23:56.183Z,6.10
2023-05-22T05:26:27.341Z,9.00
2023-05-22T05:28:56.709Z,8.10
2023-05-22T05:31:24.968Z,6.33
2023-05-22T05:33:53.452Z,9.13
2023-05-22T05:36:21.814Z,5.80
2023-05-22T05:38:49.862Z,6.53
2023-05-22T05:41:19.214Z,4.90
2023-05-22T05:43:48.615Z,5.90
2023-05-22T05:46:16.717Z,6.23
2023-05-22T05:48:45.078Z,7.57
2023-05-22T05:51:13.316Z,9.40
2023-05-22T05:53:41.777Z,9.03
2023-05-22T05:56:10.628Z,6.90
2023-05-22T05:58:39.032Z,6.83
2023-05-22T06:01:08.940Z,5.40
2023-05-22T06:03:37.365Z,6.67
2023-05-22T06:06:06.157Z,7.30
2023-05-22T06:08:34.610Z,6.63
2023-05-22T06:11:03.625Z,8.20
2023-05-22T06:13:31.813Z,7.60
2023-05-22T06:16:02.336Z,9.60
2023-05-22T06:18:34.297Z,10.07
2023-05-22T06:21:02.332Z,6.83
2023-05-22T06:23:30.947Z,6.73
2023-05-22T06:25:59.015Z,5.17
2023-05-22T06:28:27.011Z,5.03
2023-05-22T06:30:54.973Z,5.20
2023-05-22T06:33:23.131Z,6.47
2023-05-22T06:35:52.693Z,5.47
2023-05-22T06:38:20.737Z,6.13
2023-05-22T06:40:49.167Z,5.33
2023-05-22T06:43:17.226Z,6.70
2023-05-22T06:45:45.561Z,5.23
2023-05-22T06:48:13.662Z,4.80
2023-05-22T06:50:41.687Z,4.67
2023-05-22T06:53:11.344Z,5.87
2023-05-22T06:55:39.537Z,3.23
2023-05-22T06:58:07.873Z,5.00
2023-05-22T07:00:35.931Z,5.70
2023-05-22T07:03:06.310Z,6.47
2023-05-22T07:05:34.428Z,6.57
2023-05-22T07:08:03.276Z,5.57
2023-05-22T07:10:32.689Z,5.63
2023-05-22T07:13:00.787Z,3.63
2023-05-22T07:15:28.774Z,4.57
2023-05-22T07:17:57.020Z,5.73
2023-05-22T07:20:26.755Z,4.15
2023-05-22T07:22:54.776Z,4.70
2023-05-22T07:25:22.740Z,6.37
2023-05-22T07:27:52.069Z,3.83
2023-05-22T07:30:20.062Z,3.87
2023-05-22T07:32:49.257Z,3.60
2023-05-22T07:35:17.595Z,5.17
2023-05-22T07:37:45.731Z,3.93
2023-05-22T07:40:14.121Z,5.80
2023-05-22T07:42:42.097Z,4.87
2023-05-22T07:45:12.406Z,6.43
2023-05-22T07:47:40.876Z,4.85
2023-05-22T07:50:10.157Z,7.75
2023-05-22T07:52:38.228Z,5.40
2023-05-22T07:55:07.851Z,3.75
2023-05-22T07:57:37.081Z,4.47
2023-05-22T08:00:13.934Z,6.05
2023-05-22T08:02:44.068Z,4.22
2023-05-22T08:05:12.401Z,4.80
2023-05-22T08:07:40.682Z,3.78
2023-05-22T08:10:15.183Z,3.85
2023-05-22T08:12:43.467Z,2.58
2023-05-22T08:15:12.661Z,4.97
2023-05-22T08:17:40.777Z,3.85
2023-05-22T08:20:12.003Z,4.13
2023-05-22T08:22:41.459Z,4.38
2023-05-22T08:25:10.380Z,3.20
2023-05-22T08:27:38.376Z,4.90
2023-05-22T08:30:07.876Z,4.20
2023-05-22T08:32:36.084Z,3.03
2023-05-22T08:35:04.145Z,3.88
2023-05-22T08:37:33.536Z,5.15
2023-05-22T08:40:01.602Z,3.20
2023-05-22T08:42:29.695Z,3.22
2023-05-22T08:45:00.994Z,4.50
2023-05-22T08:47:29.468Z,5.10
2023-05-22T08:49:59.131Z,2.58
2023-05-22T08:52:34.391Z,3.47
2023-05-22T08:55:05.375Z,6.22
2023-05-22T08:57:34.009Z,2.92
2023-05-22T09:00:02.313Z,2.92
2023-05-22T09:02:30.347Z,3.53
2023-05-22T09:04:58.385Z,3.78
2023-05-22T09:07:27.914Z,2.58
2023-05-22T09:09:57.417Z,2.80
2023-05-22T09:12:27.265Z,5.40
2023-05-22T09:14:56.025Z,2.85
2023-05-22T09:17:24.088Z,4.50
2023-05-22T09:19:52.240Z,2.70
2023-05-22T09:22:20.958Z,2.80
2023-05-22T09:24:50.531Z,2.72
2023-05-22T09:27:24.100Z,2.78
2023-05-22T09:29:54.017Z,4.70
2023-05-22T09:32:22.224Z,4.50
2023-05-22T09:34:50.329Z,4.13
2023-05-22T09:37:19.188Z,2.63
2023-05-22T09:39:51.481Z,3.10
2023-05-22T09:42:20.820Z,3.30
2023-05-22T09:44:50.362Z,3.22
2023-05-22T09:47:18.468Z,2.90
2023-05-22T09:49:47.552Z,3.83
2023-05-22T09:52:18.068Z,5.13
2023-05-22T09:54:55.256Z,3.28
2023-05-22T09:57:26.632Z,3.13
2023-05-22T09:59:58.543Z,3.35
2023-05-22T10:02:29.052Z,6.68
2023-05-22T10:04:57.895Z,3.00
2023-05-22T10:07:31.261Z,2.45
2023-05-22T10:10:05.710Z,4.07
2023-05-22T10:12:37.673Z,3.28
2023-05-22T10:15:07.597Z,4.25
2023-05-22T10:17:36.041Z,5.55
2023-05-22T10:20:07.898Z,4.05
2023-05-22T10:22:38.052Z,3.17
2023-05-22T10:25:09.814Z,3.88
2023-05-22T10:27:40.817Z,3.85
2023-05-22T10:30:19.762Z,8.02
2023-05-22T10:32:55.064Z,2.90
2023-05-22T10:35:29.408Z,2.60
2023-05-22T10:38:11.845Z,2.28
2023-05-22T10:40:40.377Z,3.00
2023-05-22T10:43:09.920Z,4.07
2023-05-22T10:45:38.092Z,5.15
2023-05-22T10:48:06.907Z,3.08
2023-05-22T10:50:35.318Z,2.50
2023-05-22T10:53:24.276Z,4.47
2023-05-22T10:55:53.766Z,3.80
2023-05-22T10:58:30.121Z,5.30
2023-05-22T11:01:10.975Z,2.47
2023-05-22T11:03:53.288Z,5.60
2023-05-22T11:06:35.928Z,2.83
2023-05-22T11:09:30.786Z,4.93
2023-05-22T11:12:22.507Z,3.15
2023-05-22T11:14:56.640Z,3.95
2023-05-22T11:17:27.668Z,2.83
2023-05-22T11:20:00.612Z,2.65
2023-05-22T11:22:40.136Z,3.78
2023-05-22T11:25:13.006Z,2.67
2023-05-22T11:27:42.189Z,2.90
2023-05-22T11:30:13.270Z,3.33
2023-05-22T11:32:44.503Z,2.67
2023-05-22T11:35:16.127Z,4.32
2023-05-22T11:37:44.496Z,2.40
2023-05-22T11:40:14.923Z,3.50
2023-05-22T11:42:43.293Z,2.55
2023-05-22T11:45:13.277Z,3.38
2023-05-22T11:47:41.874Z,8.30
2023-05-22T11:50:11.568Z,3.42
2023-05-22T11:52:41.704Z,2.60
2023-05-22T11:55:11.238Z,4.28
2023-05-22T11:57:39.791Z,2.25
2023-05-22T12:00:10.721Z,3.17
2023-05-22T12:02:40.391Z,2.53
2023-05-22T12:05:11.888Z,3.47
2023-05-22T12:07:40.043Z,2.60
2023-05-22T12:10:08.559Z,2.90
2023-05-22T12:12:36.620Z,4.53
2023-05-22T12:15:07.400Z,2.47
2023-05-22T12:17:37.413Z,3.65
2023-05-22T12:20:08.399Z,4.18
2023-05-22T12:22:42.431Z,2.45
2023-05-22T12:25:16.377Z,2.95
2023-05-22T12:27:45.634Z,2.33
2023-05-22T12:30:15.235Z,4.50
2023-05-22T12:32:48.370Z,3.35
2023-05-22T12:35:18.435Z,2.42
2023-05-22T12:37:50.579Z,4.30
2023-05-22T12:40:19.683Z,2.30
2023-05-22T12:42:49.905Z,3.78
2023-05-22T12:45:19.082Z,3.97
2023-05-22T12:47:47.173Z,5.47
2023-05-22T12:50:15.493Z,2.60
2023-05-22T12:52:44.890Z,7.82
2023-05-22T12:55:13.079Z,5.22
2023-05-22T12:57:41.076Z,2.92
2023-05-22T13:00:10.163Z,2.90
2023-05-22T13:02:38.244Z,2.72
2023-05-22T13:05:07.225Z,3.90
2023-05-22T13:07:35.291Z,2.30
2023-05-22T13:10:06.803Z,5.15
2023-05-22T13:12:35.094Z,2.78
2023-05-22T13:15:04.047Z,3.15
2023-05-22T13:17:32.255Z,2.67
2023-05-22T13:20:00.467Z,2.72
2023-05-22T13:22:28.449Z,2.97
2023-05-22T13:24:56.462Z,2.67
2023-05-22T13:27:26.916Z,3.83
2023-05-22T13:29:55.543Z,3.28
2023-05-22T13:32:23.633Z,2.85
2023-05-22T13:34:51.743Z,3.85
2023-05-22T13:37:20.069Z,4.05
2023-05-22T13:39:48.131Z,3.53
2023-05-22T13:42:16.208Z,2.50
2023-05-22T13:44:46.093Z,4.38
2023-05-22T13:47:14.456Z,2.67
2023-05-22T13:49:42.512Z,4.47
2023-05-22T13:52:10.547Z,4.10
2023-05-22T13:54:38.796Z,2.90
2023-05-22T13:57:07.221Z,2.67
2023-05-22T13:59:35.432Z,4.82
2023-05-22T14:02:05.091Z,3.13
2023-05-22T14:04:33.149Z,2.92
2023-05-22T14:07:01.367Z,5.28
2023-05-22T14:09:29.534Z,3.35
2023-05-22T14:11:58.104Z,5.10
2023-05-22T14:14:26.654Z,4.10
2023-05-22T14:16:55.018Z,3.97
2023-05-22T14:19:24.645Z,2.55
2023-05-22T14:21:52.846Z,2.70
2023-05-22T14:24:21.000Z,5.97
2023-05-22T14:26:49.099Z,2.55
2023-05-22T14:29:17.413Z,2.40
2023-05-22T14:31:49.705Z,2.90
2023-05-22T14:34:19.764Z,7.30
2023-05-22T14:36:49.353Z,2.45
2023-05-22T14:39:17.395Z,3.88
2023-05-22T14:41:45.409Z,2.90
2023-05-22T14:44:13.433Z,4.65
2023-05-22T14:46:41.387Z,3.33
2023-05-22T14:49:09.552Z,3.83
2023-05-22T14:51:37.573Z,4.18
2023-05-22T14:54:08.047Z,2.60
2023-05-22T14:56:36.066Z,5.13
2023-05-22T14:59:04.130Z,3.95
2023-05-22T15:01:32.211Z,2.85
2023-05-22T15:04:00.268Z,2.30
2023-05-22T15:06:28.445Z,3.75
2023-05-22T15:08:56.449Z,4.60
2023-05-22T15:11:27.405Z,3.42
2023-05-22T15:13:55.465Z,3.80
2023-05-22T15:16:23.708Z,2.45
2023-05-22T15:18:51.888Z,2.65
2023-05-22T15:21:20.332Z,2.80
2023-05-22T15:23:48.705Z,2.30
2023-05-22T15:26:16.788Z,3.00
2023-05-22T15:28:46.205Z,5.00
2023-05-22T15:31:14.876Z,2.92
2023-05-22T15:33:43.136Z,5.15
2023-05-22T15:36:11.154Z,3.42
2023-05-22T15:38:40.429Z,4.18
2023-05-22T15:41:08.588Z,3.80
2023-05-22T15:43:36.630Z,4.57
2023-05-22T15:46:06.766Z,2.70
2023-05-22T15:48:34.861Z,2.72
2023-05-22T15:51:02.803Z,4.00
2023-05-22T15:53:30.842Z,3.08
2023-05-22T15:55:58.834Z,3.45
2023-05-22T15:58:28.483Z,3.28
2023-05-22T16:00:56.594Z,2.63
2023-05-22T16:03:26.077Z,3.45
2023-05-22T16:05:54.135Z,3.70
2023-05-22T16:08:22.109Z,3.08
2023-05-22T16:10:50.104Z,3.78
2023-05-22T16:13:18.302Z,5.72
2023-05-22T16:15:46.316Z,3.17
2023-05-22T16:18:15.015Z,2.78
2023-05-22T16:20:44.672Z,4.18
2023-05-22T16:23:13.346Z,3.08
2023-05-22T16:25:41.639Z,3.00
2023-05-22T16:28:11.197Z,3.85
2023-05-22T16:30:40.191Z,2.60
2023-05-22T16:33:08.903Z,4.85
2023-05-22T16:35:36.983Z,3.33
2023-05-22T16:38:07.047Z,2.88
2023-05-22T16:40:35.410Z,4.55
2023-05-22T16:43:04.469Z,4.00
2023-05-22T16:45:32.717Z,2.25
2023-05-22T16:48:00.756Z,4.18
2023-05-22T16:50:28.802Z,3.10
2023-05-22T16:52:56.929Z,2.63
2023-05-22T16:55:26.316Z,4.28
2023-05-22T16:57:54.312Z,2.95
2023-05-22T17:00:22.632Z,3.22
2023-05-22T17:02:50.881Z,4.65
2023-05-22T17:05:20.036Z,2.95
2023-05-22T17:07:49.563Z,3.90
2023-05-22T17:10:17.823Z,2.85
2023-05-22T17:12:48.402Z,3.95
2023-05-22T17:15:16.409Z,5.47
2023-05-22T17:17:44.464Z,3.92
2023-05-22T17:20:13.310Z,4.20
2023-05-22T17:22:41.297Z,4.07
2023-05-22T17:25:10.364Z,5.35
2023-05-22T17:27:38.395Z,3.15
2023-05-22T17:30:09.039Z,4.32
2023-05-22T17:32:37.228Z,3.88
2023-05-22T17:35:07.124Z,6.82
2023-05-22T17:37:35.427Z,5.25
2023-05-22T17:40:04.821Z,3.90
2023-05-22T17:42:32.877Z,3.13
2023-05-22T17:45:00.907Z,4.35
2023-05-22T17:47:30.257Z,3.63
2023-05-22T17:49:58.312Z,8.40
2023-05-22T17:52:26.788Z,4.25
2023-05-22T17:54:55.924Z,6.68
2023-05-22T17:57:23.911Z,3.97
2023-05-22T17:59:52.146Z,7.95
2023-05-22T18:02:20.238Z,5.15
2023-05-22T18:04:49.591Z,6.78
2023-05-22T18:07:19.271Z,9.68
2023-05-22T18:09:47.337Z,5.03
2023-05-22T18:12:31.347Z,5.63
2023-05-22T18:15:00.408Z,4.25
2023-05-22T18:17:28.551Z,5.47
2023-05-22T18:19:57.898Z,2.88
2023-05-22T18:22:26.023Z,4.38
2023-05-22T18:24:53.995Z,5.18
2023-05-22T18:27:22.341Z,9.82
2023-05-22T18:29:51.772Z,14.27
2023-05-22T18:32:20.131Z,15.60
2023-05-22T18:34:48.666Z,14.15
2023-05-22T18:37:18.971Z,17.42
2023-05-22T18:39:47.298Z,18.73
2023-05-22T18:42:15.948Z,15.45
2023-05-22T18:44:43.948Z,16.73
2023-05-22T18:47:12.031Z,9.15
2023-05-22T18:49:40.327Z,8.23
2023-05-22T18:52:09.278Z,8.05
2023-05-22T18:54:38.615Z,5.28
2023-05-22T18:57:06.915Z,6.53
2023-05-22T18:59:34.959Z,6.70
2023-05-22T19:02:03.234Z,6.35
2023-05-22T19:04:31.796Z,5.85
2023-05-22T19:07:00.296Z,4.88
2023-05-22T19:09:28.287Z,8.32
2023-05-22T19:11:57.734Z,5.05
2023-05-22T19:14:25.807Z,3.95
2023-05-22T19:16:54.130Z,5.97
2023-05-22T19:19:22.488Z,6.63
2023-05-22T19:21:50.547Z,7.20
2023-05-22T19:24:18.550Z,6.93
2023-05-22T19:26:46.576Z,7.80
2023-05-22T19:29:16.036Z,6.10
2023-05-22T19:31:44.433Z,7.97
2023-05-22T19:34:12.522Z,5.80
2023-05-22T19:36:40.855Z,7.68
2023-05-22T19:39:09.137Z,7.60
2023-05-22T19:41:37.317Z,9.15
2023-05-22T19:44:05.756Z,6.82
2023-05-22T19:46:35.233Z,5.88
2023-05-22T19:49:03.288Z,10.68
2023-05-22T19:51:32.175Z,9.77
2023-05-22T19:54:01.021Z,7.68
2023-05-22T19:56:30.258Z,7.10
2023-05-22T19:58:58.496Z,12.05
2023-05-22T20:01:26.514Z,57.45
2023-05-22T20:03:56.445Z,108.72
2023-05-22T20:06:24.636Z,74.03
2023-05-22T20:08:52.621Z,74.88
2023-05-22T20:11:21.672Z,56.28
2023-05-22T20:13:49.747Z,70.90
2023-05-22T20:16:17.758Z,81.95
2023-05-22T20:18:46.552Z,72.63
2023-05-22T20:21:16.184Z,79.05
2023-05-22T20:23:44.218Z,54.63
2023-05-22T20:26:12.614Z,70.22
2023-05-22T20:28:40.581Z,55.75
2023-05-22T20:31:08.598Z,43.00
2023-05-22T20:33:36.922Z,48.10
2023-05-22T20:36:06.470Z,20.48
2023-05-22T20:38:35.942Z,14.43
2023-05-22T20:41:08.633Z,9.07
2023-05-22T20:43:37.658Z,8.40
2023-05-22T20:46:05.860Z,10.38
2023-05-22T20:48:33.885Z,8.98
2023-05-22T20:51:01.906Z,7.68
2023-05-22T20:53:30.703Z,7.50
2023-05-22T20:56:00.184Z,11.87
2023-05-22T20:58:28.217Z,8.57
2023-05-22T21:00:56.661Z,9.05
2023-05-22T21:03:25.918Z,9.52
2023-05-22T21:05:54.991Z,9.07
2023-05-22T21:08:23.140Z,8.18
2023-05-22T21:10:51.155Z,8.75
2023-05-22T21:13:20.750Z,6.80
2023-05-22T21:15:48.838Z,14.63
2023-05-22T21:18:16.933Z,8.95
2023-05-22T21:20:45.229Z,13.32
2023-05-22T21:23:13.428Z,16.27
2023-05-22T21:25:41.529Z,13.03
2023-05-22T21:28:09.529Z,18.63
2023-05-22T21:30:38.979Z,15.00
2023-05-22T21:33:07.277Z,14.10
2023-05-22T21:35:35.553Z,16.53
2023-05-22T21:38:03.678Z,17.83
2023-05-22T21:40:31.709Z,18.27
2023-05-22T21:42:59.860Z,14.63
2023-05-22T21:45:27.905Z,12.93
2023-05-22T21:47:57.376Z,13.30
2023-05-22T21:50:25.451Z,15.53
2023-05-22T21:52:53.545Z,13.57
2023-05-22T21:55:22.207Z,10.80
2023-05-22T21:57:50.263Z,12.23
2023-05-22T22:00:19.189Z,11.33
2023-05-22T22:02:47.355Z,8.47
2023-05-22T22:05:18.596Z,7.87
2023-05-22T22:07:46.695Z,10.43
2023-05-22T22:10:14.998Z,8.17
2023-05-22T22:12:43.306Z,9.67
2023-05-22T22:15:12.983Z,9.37
2023-05-22T22:17:41.733Z,10.70
2023-05-22T22:20:10.946Z,8.20
2023-05-22T22:22:40.996Z,6.17
2023-05-22T22:25:09.608Z,6.47
2023-05-22T22:27:38.045Z,5.90
2023-05-22T22:30:07.248Z,9.27
2023-05-22T22:32:35.263Z,6.80
2023-05-22T22:35:04.122Z,9.37
2023-05-22T22:37:32.293Z,7.60
2023-05-22T22:40:01.713Z,8.53
2023-05-22T22:42:29.909Z,10.33
2023-05-22T22:44:57.923Z,6.87
2023-05-22T22:47:26.037Z,6.90
2023-05-22T22:49:57.229Z,5.43
2023-05-22T22:52:25.926Z,8.27
2023-05-22T22:54:54.132Z,5.77
2023-05-22T22:57:23.738Z,8.43
2023-05-22T22:59:52.186Z,13.50
2023-05-22T23:02:20.309Z,7.07
2023-05-22T23:04:48.534Z,7.87
2023-05-22T23:07:16.612Z,6.87
2023-05-22T23:09:44.626Z,6.73
2023-05-22T23:12:12.691Z,6.53
2023-05-22T23:14:42.060Z,11.27
2023-05-22T23:17:10.091Z,11.30
2023-05-22T23:19:38.065Z,8.13
2023-05-22T23:22:06.254Z,8.70
2023-05-22T23:24:34.243Z,6.77
2023-05-22T23:27:02.349Z,6.47
2023-05-22T23:29:30.566Z,7.63
2023-05-22T23:32:00.314Z,9.73
2023-05-22T23:34:28.652Z,7.57
2023-05-22T23:36:56.640Z,11.20
2023-05-22T23:39:24.728Z,10.07
2023-05-22T23:41:54.163Z,7.63
2023-05-22T23:44:22.461Z,7.90
2023-05-22T23:46:51.153Z,7.97
2023-05-22T23:49:21.529Z,8.13
2023-05-22T23:51:49.702Z,7.90
2023-05-22T23:54:18.183Z,8.60
2023-05-22T23:56:46.528Z,9.13
2023-05-22T23:59:14.580Z,8.93
